sensor_id;sensor_type;location;lat;lon;timestamp;pressure;altitude;pressure_sealevel;temperature;humidity
85560;BME280;76003;49.038;16.594;2024-02-15T00:01:04;100136.03;;;7.13;77.02
85560;BME280;76003;49.038;16.594;2024-02-15T00:03:45;100132.84;;;7.16;77.77
85560;BME280;76003;49.038;16.594;2024-02-15T00:06:26;100132.94;;;7.21;77.60
85560;BME280;76003;49.038;16.594;2024-02-15T00:09:07;100126.31;;;7.29;76.58
85560;BME280;76003;49.038;16.594;2024-02-15T00:11:48;100121.16;;;7.16;77.00
85560;BME280;76003;49.038;16.594;2024-02-15T00:14:19;100126.78;;;7.26;77.07
85560;BME280;76003;49.038;16.594;2024-02-15T00:17:06;100111.59;;;7.13;76.95
85560;BME280;76003;49.038;16.594;2024-02-15T00:19:32;100100.50;;;7.15;75.77
85560;BME280;76003;49.038;16.594;2024-02-15T00:22:19;100116.00;;;7.14;76.76
85560;BME280;76003;49.038;16.594;2024-02-15T00:24:46;100101.13;;;7.05;76.56
85560;BME280;76003;49.038;16.594;2024-02-15T00:27:17;100126.47;;;7.22;76.70
85560;BME280;76003;49.038;16.594;2024-02-15T00:29:43;100127.22;;;7.34;76.15
85560;BME280;76003;49.038;16.594;2024-02-15T00:32:29;100117.78;;;7.25;76.37
85560;BME280;76003;49.038;16.594;2024-02-15T00:35:10;100084.44;;;7.13;76.64
85560;BME280;76003;49.038;16.594;2024-02-15T00:37:50;100128.34;;;7.22;77.21
85560;BME280;76003;49.038;16.594;2024-02-15T00:40:31;100127.41;;;7.16;77.28
85560;BME280;76003;49.038;16.594;2024-02-15T00:43:11;100129.00;;;7.29;76.64
85560;BME280;76003;49.038;16.594;2024-02-15T00:45:52;100113.13;;;7.21;76.15
85560;BME280;76003;49.038;16.594;2024-02-15T00:48:32;100122.31;;;7.20;76.71
85560;BME280;76003;49.038;16.594;2024-02-15T00:50:59;100139.13;;;7.33;76.02
85560;BME280;76003;49.038;16.594;2024-02-15T00:53:45;100110.63;;;7.19;76.51
85560;BME280;76003;49.038;16.594;2024-02-15T00:56:11;100137.50;;;7.32;76.36
85560;BME280;76003;49.038;16.594;2024-02-15T00:59:01;100139.81;;;7.40;76.31
85560;BME280;76003;49.038;16.594;2024-02-15T01:01:27;100128.03;;;7.35;76.07
85560;BME280;76003;49.038;16.594;2024-02-15T01:04:24;100113.03;;;7.32;75.93
85560;BME280;76003;49.038;16.594;2024-02-15T01:06:50;100131.66;;;7.40;76.08
85560;BME280;76003;49.038;16.594;2024-02-15T01:09:37;100115.94;;;7.42;75.00
85560;BME280;76003;49.038;16.594;2024-02-15T01:12:03;100114.78;;;7.38;75.76
85560;BME280;76003;49.038;16.594;2024-02-15T01:14:31;100128.22;;;7.45;75.70
85560;BME280;76003;49.038;16.594;2024-02-15T01:16:57;100114.44;;;7.35;76.00
85560;BME280;76003;49.038;16.594;2024-02-15T01:19:22;100137.53;;;7.49;75.40
85560;BME280;76003;49.038;16.594;2024-02-15T01:21:48;100129.28;;;7.44;75.04
85560;BME280;76003;49.038;16.594;2024-02-15T01:24:13;100108.03;;;7.41;74.85
85560;BME280;76003;49.038;16.594;2024-02-15T01:26:39;100112.72;;;7.45;74.85
85560;BME280;76003;49.038;16.594;2024-02-15T01:29:04;100120.13;;;7.33;75.96
85560;BME280;76003;49.038;16.594;2024-02-15T01:31:29;100113.72;;;7.39;76.09
85560;BME280;76003;49.038;16.594;2024-02-15T01:33:56;100121.38;;;7.42;75.88
85560;BME280;76003;49.038;16.594;2024-02-15T01:36:43;100117.59;;;7.43;75.55
85560;BME280;76003;49.038;16.594;2024-02-15T01:39:23;100095.56;;;7.28;76.03
85560;BME280;76003;49.038;16.594;2024-02-15T01:41:49;100111.19;;;7.21;77.47
85560;BME280;76003;49.038;16.594;2024-02-15T01:44:41;100096.09;;;6.97;77.93
85560;BME280;76003;49.038;16.594;2024-02-15T01:47:10;100091.34;;;6.76;79.61
85560;BME280;76003;49.038;16.594;2024-02-15T01:50:13;100092.69;;;6.62;80.65
85560;BME280;76003;49.038;16.594;2024-02-15T01:52:55;100078.31;;;6.50;80.41
85560;BME280;76003;49.038;16.594;2024-02-15T01:55:38;100077.03;;;6.53;80.34
85560;BME280;76003;49.038;16.594;2024-02-15T01:58:20;100058.91;;;6.42;80.16
85560;BME280;76003;49.038;16.594;2024-02-15T02:01:01;100077.47;;;6.61;80.04
85560;BME280;76003;49.038;16.594;2024-02-15T02:03:43;100047.53;;;6.56;79.45
85560;BME280;76003;49.038;16.594;2024-02-15T02:06:24;100064.00;;;6.66;79.14
85560;BME280;76003;49.038;16.594;2024-02-15T02:08:50;100066.56;;;6.73;78.52
85560;BME280;76003;49.038;16.594;2024-02-15T02:11:36;100080.19;;;6.89;78.33
85560;BME280;76003;49.038;16.594;2024-02-15T02:15:02;100049.56;;;6.77;78.06
85560;BME280;76003;49.038;16.594;2024-02-15T02:17:28;100093.34;;;7.09;77.83
85560;BME280;76003;49.038;16.594;2024-02-15T02:20:14;100093.34;;;7.09;77.02
85560;BME280;76003;49.038;16.594;2024-02-15T02:22:41;100078.59;;;7.05;76.82
85560;BME280;76003;49.038;16.594;2024-02-15T02:25:27;100079.16;;;7.07;76.64
85560;BME280;76003;49.038;16.594;2024-02-15T02:28:08;100078.09;;;7.08;76.45
85560;BME280;76003;49.038;16.594;2024-02-15T02:30:50;100078.59;;;7.21;76.13
85560;BME280;76003;49.038;16.594;2024-02-15T02:33:30;100088.25;;;7.29;76.52
85560;BME280;76003;49.038;16.594;2024-02-15T02:36:11;100076.88;;;7.15;76.33
85560;BME280;76003;49.038;16.594;2024-02-15T02:38:53;100064.22;;;7.21;75.37
85560;BME280;76003;49.038;16.594;2024-02-15T02:41:33;100070.38;;;7.16;76.05
85560;BME280;76003;49.038;16.594;2024-02-15T02:44:14;100068.41;;;7.28;76.32
85560;BME280;76003;49.038;16.594;2024-02-15T02:46:55;100068.34;;;7.23;76.48
85560;BME280;76003;49.038;16.594;2024-02-15T02:49:35;100059.69;;;7.26;75.68
85560;BME280;76003;49.038;16.594;2024-02-15T02:52:01;100056.97;;;7.26;75.28
85560;BME280;76003;49.038;16.594;2024-02-15T02:54:47;100057.06;;;7.31;75.50
85560;BME280;76003;49.038;16.594;2024-02-15T02:57:22;100048.88;;;7.15;76.36
85560;BME280;76003;49.038;16.594;2024-02-15T03:00:13;100047.81;;;6.99;77.68
85560;BME280;76003;49.038;16.594;2024-02-15T03:02:43;100069.91;;;7.19;77.26
85560;BME280;76003;49.038;16.594;2024-02-15T03:05:29;100060.34;;;7.17;77.08
85560;BME280;76003;49.038;16.594;2024-02-15T03:08:13;100068.66;;;7.27;76.72
85560;BME280;76003;49.038;16.594;2024-02-15T03:10:53;100054.66;;;7.18;76.54
85560;BME280;76003;49.038;16.594;2024-02-15T03:13:33;100040.97;;;7.13;75.80
85560;BME280;76003;49.038;16.594;2024-02-15T03:16:14;100065.16;;;6.98;76.80
85560;BME280;76003;49.038;16.594;2024-02-15T03:18:54;100058.59;;;7.11;76.70
85560;BME280;76003;49.038;16.594;2024-02-15T03:21:34;100038.91;;;7.04;75.94
85560;BME280;76003;49.038;16.594;2024-02-15T03:24:15;100049.97;;;7.14;75.96
85560;BME280;76003;49.038;16.594;2024-02-15T03:26:42;100048.09;;;7.14;76.27
85560;BME280;76003;49.038;16.594;2024-02-15T03:29:28;100044.22;;;7.10;75.50
85560;BME280;76003;49.038;16.594;2024-02-15T03:32:09;100081.28;;;7.33;76.49
85560;BME280;76003;49.038;16.594;2024-02-15T03:34:51;100041.41;;;7.22;76.21
85560;BME280;76003;49.038;16.594;2024-02-15T03:37:24;100051.63;;;7.31;75.45
85560;BME280;76003;49.038;16.594;2024-02-15T03:40:12;100077.97;;;7.47;74.78
85560;BME280;76003;49.038;16.594;2024-02-15T03:42:38;100072.47;;;7.42;74.88
85560;BME280;76003;49.038;16.594;2024-02-15T03:45:24;100050.13;;;7.40;74.13
85560;BME280;76003;49.038;16.594;2024-02-15T03:48:05;100078.66;;;7.54;74.03
85560;BME280;76003;49.038;16.594;2024-02-15T03:50:47;100081.94;;;7.56;75.08
85560;BME280;76003;49.038;16.594;2024-02-15T03:53:28;100075.25;;;7.47;74.98
85560;BME280;76003;49.038;16.594;2024-02-15T03:56:11;100080.44;;;7.49;74.62
85560;BME280;76003;49.038;16.594;2024-02-15T03:58:51;100079.97;;;7.52;74.45
85560;BME280;76003;49.038;16.594;2024-02-15T04:01:25;100068.75;;;7.48;73.96
85560;BME280;76003;49.038;16.594;2024-02-15T04:04:13;100076.84;;;7.60;74.19
85560;BME280;76003;49.038;16.594;2024-02-15T04:06:39;100063.97;;;7.55;74.43
85560;BME280;76003;49.038;16.594;2024-02-15T04:09:06;100048.00;;;7.42;74.61
85560;BME280;76003;49.038;16.594;2024-02-15T04:11:32;100060.09;;;7.51;75.34
85560;BME280;76003;49.038;16.594;2024-02-15T04:13:59;100055.66;;;7.45;74.97
85560;BME280;76003;49.038;16.594;2024-02-15T04:16:45;100062.31;;;7.21;76.58
85560;BME280;76003;49.038;16.594;2024-02-15T04:19:11;100077.28;;;7.24;76.62
85560;BME280;76003;49.038;16.594;2024-02-15T04:21:58;100076.72;;;7.22;77.13
85560;BME280;76003;49.038;16.594;2024-02-15T04:25:24;100084.72;;;7.28;76.94
85560;BME280;76003;49.038;16.594;2024-02-15T04:28:53;100078.72;;;7.26;76.52
85560;BME280;76003;49.038;16.594;2024-02-15T04:32:18;100091.38;;;7.37;76.74
85560;BME280;76003;49.038;16.594;2024-02-15T04:35:44;100057.88;;;7.15;76.86
85560;BME280;76003;49.038;16.594;2024-02-15T04:38:10;100082.13;;;7.05;77.81
85560;BME280;76003;49.038;16.594;2024-02-15T04:40:57;100063.72;;;6.79;78.53
85560;BME280;76003;49.038;16.594;2024-02-15T04:43:40;100007.78;;;6.50;78.63
85560;BME280;76003;49.038;16.594;2024-02-15T04:46:23;100074.22;;;7.04;78.07
85560;BME280;76003;49.038;16.594;2024-02-15T04:49:05;100087.56;;;7.05;78.22
85560;BME280;76003;49.038;16.594;2024-02-15T04:51:48;100093.22;;;7.04;77.64
85560;BME280;76003;49.038;16.594;2024-02-15T04:54:14;100102.97;;;7.16;77.42
85560;BME280;76003;49.038;16.594;2024-02-15T04:57:01;100100.34;;;7.21;77.46
85560;BME280;76003;49.038;16.594;2024-02-15T04:59:27;100104.56;;;7.29;77.20
85560;BME280;76003;49.038;16.594;2024-02-15T05:02:15;100077.69;;;7.16;77.39
85560;BME280;76003;49.038;16.594;2024-02-15T05:04:55;100090.75;;;7.30;76.81
85560;BME280;76003;49.038;16.594;2024-02-15T05:07:36;100091.53;;;7.31;77.38
85560;BME280;76003;49.038;16.594;2024-02-15T05:10:20;100105.41;;;7.46;77.01
85560;BME280;76003;49.038;16.594;2024-02-15T05:12:53;100074.31;;;7.25;76.46
85560;BME280;76003;49.038;16.594;2024-02-15T05:15:41;100081.59;;;7.36;75.90
85560;BME280;76003;49.038;16.594;2024-02-15T05:18:22;100080.34;;;7.27;76.51
85560;BME280;76003;49.038;16.594;2024-02-15T05:21:04;100097.50;;;7.44;75.97
85560;BME280;76003;49.038;16.594;2024-02-15T05:23:45;100102.50;;;7.52;76.14
85560;BME280;76003;49.038;16.594;2024-02-15T05:26:26;100045.75;;;7.23;76.55
85560;BME280;76003;49.038;16.594;2024-02-15T05:28:55;100056.16;;;7.42;75.85
85560;BME280;76003;49.038;16.594;2024-02-15T05:31:42;100087.19;;;7.63;75.87
85560;BME280;76003;49.038;16.594;2024-02-15T05:34:10;100075.84;;;7.49;76.36
85560;BME280;76003;49.038;16.594;2024-02-15T05:36:57;100073.88;;;7.45;75.97
85560;BME280;76003;49.038;16.594;2024-02-15T05:39:38;100054.19;;;7.38;76.18
85560;BME280;76003;49.038;16.594;2024-02-15T05:42:20;100077.56;;;7.39;76.26
85560;BME280;76003;49.038;16.594;2024-02-15T05:45:14;100092.28;;;7.43;77.32
85560;BME280;76003;49.038;16.594;2024-02-15T05:47:40;100101.94;;;7.50;76.71
85560;BME280;76003;49.038;16.594;2024-02-15T05:50:27;100077.22;;;7.35;76.45
85560;BME280;76003;49.038;16.594;2024-02-15T05:53:09;100098.09;;;7.46;77.03
85560;BME280;76003;49.038;16.594;2024-02-15T05:55:50;100089.97;;;7.35;77.10
85560;BME280;76003;49.038;16.594;2024-02-15T05:58:31;100027.72;;;7.00;76.63
85560;BME280;76003;49.038;16.594;2024-02-15T06:01:12;100097.50;;;7.44;77.21
85560;BME280;76003;49.038;16.594;2024-02-15T06:03:39;100104.06;;;7.48;76.69
85560;BME280;76003;49.038;16.594;2024-02-15T06:06:27;100079.75;;;7.25;77.32
85560;BME280;76003;49.038;16.594;2024-02-15T06:08:54;100077.53;;;7.06;77.21
85560;BME280;76003;49.038;16.594;2024-02-15T06:11:45;100084.44;;;6.97;78.77
85560;BME280;76003;49.038;16.594;2024-02-15T06:14:25;100128.72;;;7.14;78.98
85560;BME280;76003;49.038;16.594;2024-02-15T06:17:06;100118.03;;;7.07;79.56
85560;BME280;76003;49.038;16.594;2024-02-15T06:19:46;100121.97;;;7.16;79.62
85560;BME280;76003;49.038;16.594;2024-02-15T06:22:27;100118.69;;;7.14;79.28
85560;BME280;76003;49.038;16.594;2024-02-15T06:25:08;100131.13;;;7.27;79.75
85560;BME280;76003;49.038;16.594;2024-02-15T06:27:37;100131.13;;;7.27;79.46
85560;BME280;76003;49.038;16.594;2024-02-15T06:30:26;100126.63;;;7.32;79.34
85560;BME280;76003;49.038;16.594;2024-02-15T06:33:25;100111.41;;;7.31;79.24
85560;BME280;76003;49.038;16.594;2024-02-15T06:36:24;100126.38;;;7.34;79.43
85560;BME280;76003;49.038;16.594;2024-02-15T06:39:08;100141.63;;;7.35;79.63
85560;BME280;76003;49.038;16.594;2024-02-15T06:42:16;100128.94;;;7.40;79.30
85560;BME280;76003;49.038;16.594;2024-02-15T06:45:00;100127.63;;;7.43;78.92
85560;BME280;76003;49.038;16.594;2024-02-15T06:47:41;100144.28;;;7.46;79.58
85560;BME280;76003;49.038;16.594;2024-02-15T06:50:11;100147.31;;;7.50;79.25
85560;BME280;76003;49.038;16.594;2024-02-15T06:52:57;100152.03;;;7.54;79.59
85560;BME280;76003;49.038;16.594;2024-02-15T06:55:38;100142.13;;;7.48;79.92
85560;BME280;76003;49.038;16.594;2024-02-15T06:58:20;100153.75;;;7.60;79.49
85560;BME280;76003;49.038;16.594;2024-02-15T07:00:45;100147.34;;;7.66;79.68
85560;BME280;76003;49.038;16.594;2024-02-15T07:03:11;100134.72;;;7.60;78.58
85560;BME280;76003;49.038;16.594;2024-02-15T07:05:58;100151.28;;;7.75;78.25
85560;BME280;76003;49.038;16.594;2024-02-15T07:08:38;100144.63;;;7.66;79.60
85560;BME280;76003;49.038;16.594;2024-02-15T07:11:20;100128.25;;;7.61;79.40
85560;BME280;76003;49.038;16.594;2024-02-15T07:14:02;100146.28;;;7.67;78.51
85560;BME280;76003;49.038;16.594;2024-02-15T07:16:30;100132.59;;;7.62;78.65
85560;BME280;76003;49.038;16.594;2024-02-15T07:19:17;100154.38;;;7.79;78.32
85560;BME280;76003;49.038;16.594;2024-02-15T07:21:58;100171.44;;;7.91;77.79
85560;BME280;76003;49.038;16.594;2024-02-15T07:24:39;100156.31;;;7.83;78.35
85560;BME280;76003;49.038;16.594;2024-02-15T07:27:05;100167.19;;;7.83;78.59
85560;BME280;76003;49.038;16.594;2024-02-15T07:29:52;100144.88;;;7.65;78.55
85560;BME280;76003;49.038;16.594;2024-02-15T07:32:18;100168.34;;;7.87;79.12
85560;BME280;76003;49.038;16.594;2024-02-15T07:36:01;100149.41;;;7.59;79.99
85560;BME280;76003;49.038;16.594;2024-02-15T07:38:26;100182.28;;;7.74;80.60
85560;BME280;76003;49.038;16.594;2024-02-15T07:41:13;100170.50;;;7.69;80.80
85560;BME280;76003;49.038;16.594;2024-02-15T07:44:38;100173.72;;;7.82;81.04
85560;BME280;76003;49.038;16.594;2024-02-15T07:48:04;100172.72;;;7.88;81.19
85560;BME280;76003;49.038;16.594;2024-02-15T07:51:15;100169.78;;;7.73;81.57
85560;BME280;76003;49.038;16.594;2024-02-15T07:53:42;100142.56;;;7.57;81.46
85560;BME280;76003;49.038;16.594;2024-02-15T07:56:28;100175.09;;;7.68;81.61
85560;BME280;76003;49.038;16.594;2024-02-15T07:59:54;100174.97;;;7.75;82.53
85560;BME280;76003;49.038;16.594;2024-02-15T08:02:20;100155.75;;;7.65;82.41
85560;BME280;76003;49.038;16.594;2024-02-15T08:05:12;100167.84;;;7.74;82.33
85560;BME280;76003;49.038;16.594;2024-02-15T08:07:41;100163.97;;;7.70;82.21
85560;BME280;76003;49.038;16.594;2024-02-15T08:10:07;100166.88;;;7.63;85.17
85560;BME280;76003;49.038;16.594;2024-02-15T08:13:13;100140.47;;;7.03;85.00
85560;BME280;76003;49.038;16.594;2024-02-15T08:15:40;100125.88;;;6.92;85.86
85560;BME280;76003;49.038;16.594;2024-02-15T08:18:28;100145.66;;;7.32;85.56
85560;BME280;76003;49.038;16.594;2024-02-15T08:21:08;100139.88;;;7.45;83.38
85560;BME280;76003;49.038;16.594;2024-02-15T08:23:49;100130.38;;;7.59;84.37
85560;BME280;76003;49.038;16.594;2024-02-15T08:26:38;100140.44;;;7.92;83.01
85560;BME280;76003;49.038;16.594;2024-02-15T08:29:18;100153.59;;;7.83;82.85
85560;BME280;76003;49.038;16.594;2024-02-15T08:32:00;100118.50;;;7.82;81.92
85560;BME280;76003;49.038;16.594;2024-02-15T08:34:41;100109.94;;;8.44;81.56
85560;BME280;76003;49.038;16.594;2024-02-15T08:37:06;100138.25;;;9.35;80.30
85560;BME280;76003;49.038;16.594;2024-02-15T08:39:53;100149.25;;;9.71;80.02
85560;BME280;76003;49.038;16.594;2024-02-15T08:42:19;100123.25;;;9.32;77.79
85560;BME280;76003;49.038;16.594;2024-02-15T08:45:09;100149.13;;;9.30;77.98
85560;BME280;76003;49.038;16.594;2024-02-15T08:47:39;100123.06;;;8.91;77.68
85560;BME280;76003;49.038;16.594;2024-02-15T08:51:21;100145.88;;;9.11;78.08
85560;BME280;76003;49.038;16.594;2024-02-15T08:54:47;100146.34;;;8.81;79.74
85560;BME280;76003;49.038;16.594;2024-02-15T08:57:13;100095.13;;;8.35;79.99
85560;BME280;76003;49.038;16.594;2024-02-15T09:00:00;100125.09;;;8.57;79.94
85560;BME280;76003;49.038;16.594;2024-02-15T09:03:25;100152.41;;;8.45;81.29
85560;BME280;76003;49.038;16.594;2024-02-15T09:06:51;100150.06;;;8.32;82.27
85560;BME280;76003;49.038;16.594;2024-02-15T09:10:17;100159.34;;;8.74;82.38
85560;BME280;76003;49.038;16.594;2024-02-15T09:12:44;100148.56;;;8.25;81.08
85560;BME280;76003;49.038;16.594;2024-02-15T09:15:50;100116.81;;;8.30;82.26
85560;BME280;76003;49.038;16.594;2024-02-15T09:18:16;100155.75;;;8.69;81.07
85560;BME280;76003;49.038;16.594;2024-02-15T09:21:08;100153.00;;;8.14;81.23
85560;BME280;76003;49.038;16.594;2024-02-15T09:23:35;100166.88;;;8.29;81.97
85560;BME280;76003;49.038;16.594;2024-02-15T09:26:17;100144.06;;;8.52;82.53
85560;BME280;76003;49.038;16.594;2024-02-15T09:29:30;100148.19;;;8.76;82.26
85560;BME280;76003;49.038;16.594;2024-02-15T09:31:58;100119.31;;;8.75;82.79
85560;BME280;76003;49.038;16.594;2024-02-15T09:34:48;100152.16;;;9.12;81.16
85560;BME280;76003;49.038;16.594;2024-02-15T09:38:14;100147.94;;;8.99;80.66
85560;BME280;76003;49.038;16.594;2024-02-15T09:41:41;100126.47;;;8.81;82.33
85560;BME280;76003;49.038;16.594;2024-02-15T09:45:11;100144.41;;;8.77;82.60
85560;BME280;76003;49.038;16.594;2024-02-15T09:48:44;100139.06;;;8.65;86.51
85560;BME280;76003;49.038;16.594;2024-02-15T09:51:12;100146.50;;;8.70;85.43
85560;BME280;76003;49.038;16.594;2024-02-15T09:53:39;100141.59;;;8.50;83.89
85560;BME280;76003;49.038;16.594;2024-02-15T09:56:26;100140.72;;;8.66;85.26
85560;BME280;76003;49.038;16.594;2024-02-15T09:58:54;100160.41;;;8.52;83.84
85560;BME280;76003;49.038;16.594;2024-02-15T10:01:41;100149.00;;;8.55;84.84
85560;BME280;76003;49.038;16.594;2024-02-15T10:04:22;100148.31;;;8.43;83.77
85560;BME280;76003;49.038;16.594;2024-02-15T10:06:48;100143.69;;;8.43;84.66
85560;BME280;76003;49.038;16.594;2024-02-15T10:09:35;100141.13;;;8.37;84.43
85560;BME280;76003;49.038;16.594;2024-02-15T10:12:17;100148.38;;;8.48;84.20
85560;BME280;76003;49.038;16.594;2024-02-15T10:14:58;100155.78;;;8.52;84.89
85560;BME280;76003;49.038;16.594;2024-02-15T10:18:24;100114.59;;;8.27;84.39
85560;BME280;76003;49.038;16.594;2024-02-15T10:21:04;100160.16;;;8.53;84.03
85560;BME280;76003;49.038;16.594;2024-02-15T10:23:45;100156.59;;;8.53;84.09
85560;BME280;76003;49.038;16.594;2024-02-15T10:26:26;100151.25;;;8.58;83.90
85560;BME280;76003;49.038;16.594;2024-02-15T10:29:08;100163.81;;;8.64;83.14
85560;BME280;76003;49.038;16.594;2024-02-15T10:31:56;100147.56;;;8.47;83.61
85560;BME280;76003;49.038;16.594;2024-02-15T10:34:45;100172.63;;;8.71;84.48
85560;BME280;76003;49.038;16.594;2024-02-15T10:37:25;100142.88;;;8.64;83.68
85560;BME280;76003;49.038;16.594;2024-02-15T10:40:05;100162.63;;;8.76;83.37
85560;BME280;76003;49.038;16.594;2024-02-15T10:42:33;100170.50;;;8.73;83.55
85560;BME280;76003;49.038;16.594;2024-02-15T10:45:23;100155.47;;;8.70;82.94
85560;BME280;76003;49.038;16.594;2024-02-15T10:47:49;100118.47;;;8.53;83.05
85560;BME280;76003;49.038;16.594;2024-02-15T10:50:35;100148.56;;;8.63;83.91
85560;BME280;76003;49.038;16.594;2024-02-15T10:54:02;100159.16;;;8.59;83.66
85560;BME280;76003;49.038;16.594;2024-02-15T10:57:37;100137.25;;;8.71;83.03
85560;BME280;76003;49.038;16.594;2024-02-15T11:01:06;100142.78;;;8.38;84.11
85560;BME280;76003;49.038;16.594;2024-02-15T11:03:57;100133.97;;;8.69;83.56
85560;BME280;76003;49.038;16.594;2024-02-15T11:06:27;100111.91;;;8.70;83.69
85560;BME280;76003;49.038;16.594;2024-02-15T11:09:16;100129.06;;;8.93;82.62
85560;BME280;76003;49.038;16.594;2024-02-15T11:11:42;100109.88;;;8.82;81.77
85560;BME280;76003;49.038;16.594;2024-02-15T11:14:31;100128.34;;;9.02;82.04
85560;BME280;76003;49.038;16.594;2024-02-15T11:23:26;100099.69;;;9.21;81.49
85560;BME280;76003;49.038;16.594;2024-02-15T11:26:43;100132.59;;;9.41;81.53
85560;BME280;76003;49.038;16.594;2024-02-15T11:35:26;100128.22;;;9.72;80.59
85560;BME280;76003;49.038;16.594;2024-02-15T11:38:08;100110.44;;;9.64;80.40
85560;BME280;76003;49.038;16.594;2024-02-15T11:40:59;100129.59;;;9.74;81.52
85560;BME280;76003;49.038;16.594;2024-02-15T11:46:40;100088.47;;;9.44;80.06
85560;BME280;76003;49.038;16.594;2024-02-15T11:49:07;100121.88;;;9.61;81.38
85560;BME280;76003;49.038;16.594;2024-02-15T11:53:02;100111.34;;;9.75;80.83
85560;BME280;76003;49.038;16.594;2024-02-15T11:55:35;100101.31;;;9.85;79.38
85560;BME280;76003;49.038;16.594;2024-02-15T11:58:38;100102.03;;;10.02;80.12
85560;BME280;76003;49.038;16.594;2024-02-15T12:01:18;100089.19;;;10.03;80.66
85560;BME280;76003;49.038;16.594;2024-02-15T12:04:33;100098.69;;;9.95;79.47
85560;BME280;76003;49.038;16.594;2024-02-15T12:07:18;100101.31;;;9.80;80.58
85560;BME280;76003;49.038;16.594;2024-02-15T12:10:39;100076.28;;;9.57;80.38
85560;BME280;76003;49.038;16.594;2024-02-15T12:14:23;100094.75;;;10.13;80.21
85560;BME280;76003;49.038;16.594;2024-02-15T12:18:17;100082.59;;;10.40;79.73
85560;BME280;76003;49.038;16.594;2024-02-15T12:21:02;100086.25;;;10.56;79.96
85560;BME280;76003;49.038;16.594;2024-02-15T12:23:49;100084.44;;;10.76;78.28
85560;BME280;76003;49.038;16.594;2024-02-15T12:26:30;100081.44;;;10.88;77.00
85560;BME280;76003;49.038;16.594;2024-02-15T12:29:17;100059.84;;;10.76;76.44
85560;BME280;76003;49.038;16.594;2024-02-15T12:31:43;100069.66;;;10.77;76.18
85560;BME280;76003;49.038;16.594;2024-02-15T12:34:47;100069.94;;;10.86;78.34
85560;BME280;76003;49.038;16.594;2024-02-15T12:37:13;100049.44;;;10.83;76.10
85560;BME280;76003;49.038;16.594;2024-02-15T12:40:55;100071.13;;;11.10;75.54
85560;BME280;76003;49.038;16.594;2024-02-15T12:43:21;100055.25;;;11.07;75.91
85560;BME280;76003;49.038;16.594;2024-02-15T12:46:08;100067.56;;;11.09;75.81
85560;BME280;76003;49.038;16.594;2024-02-15T12:48:48;100071.63;;;10.97;77.38
85560;BME280;76003;49.038;16.594;2024-02-15T12:51:30;100069.72;;;11.02;75.55
85560;BME280;76003;49.038;16.594;2024-02-15T12:54:12;100051.91;;;10.80;77.21
85560;BME280;76003;49.038;16.594;2024-02-15T12:57:07;100057.63;;;10.78;76.79
85560;BME280;76003;49.038;16.594;2024-02-15T12:59:49;100043.13;;;10.78;77.88
85560;BME280;76003;49.038;16.594;2024-02-15T13:02:16;100065.63;;;10.90;76.87
85560;BME280;76003;49.038;16.594;2024-02-15T13:05:04;100066.94;;;10.87;77.93
85560;BME280;76003;49.038;16.594;2024-02-15T13:07:30;100055.47;;;10.80;77.27
85560;BME280;76003;49.038;16.594;2024-02-15T13:10:33;100033.50;;;10.50;78.68
85560;BME280;76003;49.038;16.594;2024-02-15T13:12:59;100040.38;;;10.63;78.86
85560;BME280;76003;49.038;16.594;2024-02-15T13:16:41;100026.69;;;10.58;78.69
85560;BME280;76003;49.038;16.594;2024-02-15T13:19:10;100037.13;;;10.76;77.96
85560;BME280;76003;49.038;16.594;2024-02-15T13:21:56;100008.53;;;10.22;79.90
85560;BME280;76003;49.038;16.594;2024-02-15T13:25:22;100030.16;;;10.33;79.85
85560;BME280;76003;49.038;16.594;2024-02-15T13:28:48;100033.81;;;10.64;78.90
85560;BME280;76003;49.038;16.594;2024-02-15T13:32:15;100028.41;;;10.79;78.45
85560;BME280;76003;49.038;16.594;2024-02-15T13:35:42;100047.59;;;11.04;77.87
85560;BME280;76003;49.038;16.594;2024-02-15T13:38:08;100022.41;;;10.92;77.52
85560;BME280;76003;49.038;16.594;2024-02-15T13:41:00;100035.28;;;11.06;77.98
85560;BME280;76003;49.038;16.594;2024-02-15T13:43:29;100044.81;;;10.79;79.37
85560;BME280;76003;49.038;16.594;2024-02-15T13:46:16;100045.03;;;10.67;79.64
85560;BME280;76003;49.038;16.594;2024-02-15T13:49:00;100030.53;;;10.62;79.27
85560;BME280;76003;49.038;16.594;2024-02-15T13:51:27;100021.78;;;10.55;79.48
85560;BME280;76003;49.038;16.594;2024-02-15T13:54:14;100034.63;;;10.59;79.19
85560;BME280;76003;49.038;16.594;2024-02-15T13:56:55;100043.31;;;10.46;80.18
85560;BME280;76003;49.038;16.594;2024-02-15T13:59:35;100024.16;;;10.36;80.95
85560;BME280;76003;49.038;16.594;2024-02-15T14:02:15;100041.44;;;10.52;80.36
85560;BME280;76003;49.038;16.594;2024-02-15T14:04:56;100043.31;;;10.46;80.47
85560;BME280;76003;49.038;16.594;2024-02-15T14:07:38;100036.19;;;10.40;80.84
85560;BME280;76003;49.038;16.594;2024-02-15T14:10:07;100023.09;;;10.42;81.18
85560;BME280;76003;49.038;16.594;2024-02-15T14:13:49;100031.78;;;10.29;81.75
85560;BME280;76003;49.038;16.594;2024-02-15T14:17:20;100026.06;;;10.36;81.97
85560;BME280;76003;49.038;16.594;2024-02-15T14:19:46;100032.31;;;10.31;81.79
85560;BME280;76003;49.038;16.594;2024-02-15T14:22:33;100029.66;;;10.41;81.68
85560;BME280;76003;49.038;16.594;2024-02-15T14:24:59;100005.94;;;10.00;81.93
85560;BME280;76003;49.038;16.594;2024-02-15T14:27:46;100009.34;;;10.22;81.49
85560;BME280;76003;49.038;16.594;2024-02-15T14:30:13;99987.78;;;10.16;81.84
85560;BME280;76003;49.038;16.594;2024-02-15T14:33:18;100009.88;;;10.19;81.95
85560;BME280;76003;49.038;16.594;2024-02-15T14:36:44;100021.34;;;10.21;81.64